Time;durP1;ratioP1;P1;durP2;ratioP2;P2;SDS_P1;SDS_P2;PMS_P1;PMS_P2;Temp;Humidity;BMP_temperature;BMP_pressure;BME280_temperature;BME280_humidity;BME280_pressure;Samples;Min_cycle;Max_cycle;Signal;HPM_P1;HPM_P2
2022/06/23 00:02:19;;;;;;;;;;;;;;;15.43;100.00;99121.16;5133207;28;19931;-50
2022/06/23 00:04:46;;;;;;;;;;;;;;;15.57;100.00;99136.91;5132828;28;19928;-49
2022/06/23 00:07:14;;;;;;;;;;;;;;;15.56;100.00;99133.38;5133259;28;19927;-47
2022/06/23 00:09:42;;;;;;;;;;;;;;;15.51;100.00;99133.75;5132851;28;19973;-50
2022/06/23 00:12:27;;;;;;;;;;;;;;;15.33;100.00;99133.00;5132956;28;19948;-51
2022/06/23 00:14:54;;;;;;;;;;;;;;;15.51;100.00;99137.31;5133010;28;19931;-46
2022/06/23 00:17:23;;;;;;;;;;;;;;;15.34;100.00;99143.66;5132647;28;19934;-47
2022/06/23 00:19:49;;;;;;;;;;;;;;;15.38;100.00;99147.19;5132873;28;20028;-47
2022/06/23 00:22:17;;;;;;;;;;;;;;;15.45;100.00;99149.16;5132619;28;20018;-47
2022/06/23 00:24:44;;;;;;;;;;;;;;;15.37;100.00;99153.91;5132698;28;19975;-46
2022/06/23 00:27:13;;;;;;;;;;;;;;;15.40;100.00;99149.59;5132479;28;19935;-48
2022/06/23 00:29:40;;;;;;;;;;;;;;;15.41;100.00;99154.69;5132476;28;19941;-48
2022/06/23 00:32:10;;;;;;;;;;;;;;;15.42;100.00;99150.75;5132486;28;19927;-48
2022/06/23 00:34:36;;;;;;;;;;;;;;;15.39;100.00;99150.75;5132761;28;20476;-49
2022/06/23 00:37:04;;;;;;;;;;;;;;;15.34;100.00;99151.94;5132460;28;19934;-49
2022/06/23 00:39:33;;;;;;;;;;;;;;;15.13;100.00;99158.28;5132346;28;19927;-47
2022/06/23 00:42:00;;;;;;;;;;;;;;;15.23;100.00;99151.19;5132384;28;20394;-48
2022/06/23 00:44:31;;;;;;;;;;;;;;;15.34;100.00;99151.16;5132223;28;19927;-46
2022/06/23 00:47:01;;;;;;;;;;;;;;;15.52;100.00;99155.44;5132514;28;19933;-46
2022/06/23 00:49:29;;;;;;;;;;;;;;;15.44;100.00;99156.66;5132438;28;20012;-46
2022/06/23 00:51:58;;;;;;;;;;;;;;;15.48;100.00;99159.41;5132338;28;19935;-46
2022/06/23 00:54:26;;;;;;;;;;;;;;;15.45;100.00;99162.97;5132141;28;19939;-46
2022/06/23 00:56:55;;;;;;;;;;;;;;;15.42;100.00;99164.56;5131980;28;20440;-47
2022/06/23 00:59:26;;;;;;;;;;;;;;;15.25;100.00;99160.63;5131681;27;20317;-46
2022/06/23 01:01:56;;;;;;;;;;;;;;;15.29;100.00;99166.97;5131912;28;20382;-47
2022/06/23 01:04:28;;;;;;;;;;;;;;;15.23;100.00;99162.22;5132270;28;19933;-51
2022/06/23 01:06:57;;;;;;;;;;;;;;;15.28;100.00;99167.34;5131808;28;19937;-47
2022/06/23 01:09:26;;;;;;;;;;;;;;;15.19;100.00;99159.44;5132396;28;20020;-46
2022/06/23 01:11:55;;;;;;;;;;;;;;;15.20;100.00;99165.78;5131848;28;19934;-46
2022/06/23 01:14:25;;;;;;;;;;;;;;;15.03;100.00;99168.16;5132053;28;20021;-47
2022/06/23 01:16:53;;;;;;;;;;;;;;;15.09;100.00;99164.97;5131718;28;20313;-48
2022/06/23 01:19:43;;;;;;;;;;;;;;;15.04;100.00;99166.97;5131821;28;19934;-47
2022/06/23 01:22:23;;;;;;;;;;;;;;;14.78;100.00;99164.59;5132055;28;20321;-46
2022/06/23 01:24:54;;;;;;;;;;;;;;;14.90;100.00;99155.94;5131503;28;19927;-47
2022/06/23 01:27:24;;;;;;;;;;;;;;;14.69;100.00;99164.97;5131952;28;19927;-48
2022/06/23 01:29:53;;;;;;;;;;;;;;;14.67;100.00;99150.00;5131628;28;20348;-48
2022/06/23 01:32:21;;;;;;;;;;;;;;;14.75;100.00;99148.81;5131814;28;19933;-47
2022/06/23 01:34:50;;;;;;;;;;;;;;;14.81;100.00;99150.00;5131524;28;19996;-49
2022/06/23 01:37:24;;;;;;;;;;;;;;;14.71;100.00;99148.03;5131653;28;19935;-46
2022/06/23 01:39:53;;;;;;;;;;;;;;;14.74;100.00;99152.75;5131606;28;19939;-50
2022/06/23 01:42:23;;;;;;;;;;;;;;;14.72;100.00;99157.88;5131252;28;19927;-48
2022/06/23 01:44:51;;;;;;;;;;;;;;;14.66;100.00;99159.44;5131467;28;20039;-47
2022/06/23 01:47:21;;;;;;;;;;;;;;;14.59;100.00;99151.94;5131285;28;19931;-48
2022/06/23 01:49:49;;;;;;;;;;;;;;;14.64;100.00;99150.78;5131139;28;19931;-47
2022/06/23 01:52:17;;;;;;;;;;;;;;;14.53;100.00;99154.31;5131072;28;19928;-47
2022/06/23 01:54:44;;;;;;;;;;;;;;;14.59;100.00;99154.69;5131295;28;19932;-47
2022/06/23 01:57:14;;;;;;;;;;;;;;;14.46;100.00;99147.94;5131096;28;20034;-48
2022/06/23 01:59:47;;;;;;;;;;;;;;;14.43;100.00;99138.50;5131477;28;19927;-47
2022/06/23 02:02:25;;;;;;;;;;;;;;;14.38;100.00;99138.09;5131175;28;19932;-46
2022/06/23 02:04:55;;;;;;;;;;;;;;;14.33;100.00;99125.50;5131022;28;19935;-46
2022/06/23 02:07:25;;;;;;;;;;;;;;;14.29;100.00;99143.97;5131178;28;19927;-47
2022/06/23 02:09:52;;;;;;;;;;;;;;;14.24;100.00;99133.34;5130898;28;19975;-47
2022/06/23 02:12:21;;;;;;;;;;;;;;;14.40;100.00;99131.00;5132442;27;20077;-46
2022/06/23 02:14:52;;;;;;;;;;;;;;;14.38;100.00;99129.81;5134632;28;19931;-50
2022/06/23 02:17:38;;;;;;;;;;;;;;;14.29;100.00;99146.72;5134918;28;19942;-47
2022/06/23 02:20:26;;;;;;;;;;;;;;;14.34;100.00;99132.56;5126236;28;19927;-51
2022/06/23 02:22:59;;;;;;;;;;;;;;;14.54;100.00;99150.38;5134727;28;20279;-47
2022/06/23 02:25:28;;;;;;;;;;;;;;;15.02;100.00;99168.53;5134817;28;19927;-50
2022/06/23 02:27:56;;;;;;;;;;;;;;;15.47;100.00;99205.59;5134441;28;19985;-47
2022/06/23 02:30:24;;;;;;;;;;;;;;;15.73;100.00;99236.78;5134775;28;19927;-49
2022/06/23 02:33:00;;;;;;;;;;;;;;;16.31;100.00;99224.34;5134325;28;19942;-49
2022/06/23 02:35:30;;;;;;;;;;;;;;;16.33;100.00;99194.31;5134551;28;19939;-48
2022/06/23 02:37:59;;;;;;;;;;;;;;;16.90;100.00;99129.53;5134618;28;19931;-47
2022/06/23 02:40:34;;;;;;;;;;;;;;;17.12;100.00;99056.09;5134500;28;19927;-48
2022/06/23 02:43:03;;;;;;;;;;;;;;;17.29;100.00;98987.06;5134658;28;19927;-48
2022/06/23 02:45:44;;;;;;;;;;;;;;;17.51;100.00;98916.31;5134130;28;20337;-47
2022/06/23 02:48:17;;;;;;;;;;;;;;;17.74;100.00;98835.19;5112843;28;19933;-51
2022/06/23 02:50:52;;;;;;;;;;;;;;;17.94;100.00;98713.25;5134237;28;19931;-49
2022/06/23 02:53:28;;;;;;;;;;;;;;;18.11;100.00;98645.53;5134511;28;19928;-48
2022/06/23 02:56:12;;;;;;;;;;;;;;;18.24;100.00;98587.41;5134378;28;20342;-49
2022/06/23 02:58:43;;;;;;;;;;;;;;;18.37;100.00;98509.03;5133834;28;19972;-49
2022/06/23 03:01:12;;;;;;;;;;;;;;;18.73;100.00;98497.88;5134106;28;19931;-48
2022/06/23 03:03:41;;;;;;;;;;;;;;;18.90;100.00;98337.53;5133783;28;19927;-47
2022/06/23 03:06:14;;;;;;;;;;;;;;;19.24;100.00;98287.69;5133968;28;19934;-49
2022/06/23 03:08:44;;;;;;;;;;;;;;;19.58;100.00;98215.94;5133726;28;19928;-48
2022/06/23 03:11:15;;;;;;;;;;;;;;;19.50;100.00;98112.56;5134016;28;19933;-49
2022/06/23 03:13:44;;;;;;;;;;;;;;;20.09;100.00;98085.81;5133800;28;20373;-51
2022/06/23 03:16:17;;;;;;;;;;;;;;;20.36;100.00;97987.75;5133675;28;20394;-48
2022/06/23 03:18:49;;;;;;;;;;;;;;;20.42;100.00;97966.41;5133654;28;19931;-50
2022/06/23 03:21:18;;;;;;;;;;;;;;;20.39;100.00;97953.44;5133644;28;19928;-49
2022/06/23 03:23:46;;;;;;;;;;;;;;;20.62;100.00;97892.84;5133611;27;19928;-50
2022/06/23 03:26:18;;;;;;;;;;;;;;;20.37;100.00;97883.53;5133785;28;20018;-50
2022/06/23 03:28:48;;;;;;;;;;;;;;;20.88;100.00;97882.94;5133688;28;19935;-48
2022/06/23 03:31:18;;;;;;;;;;;;;;;21.05;100.00;97852.72;5133672;28;19927;-48
2022/06/23 03:33:46;;;;;;;;;;;;;;;21.00;100.00;97860.97;5133454;28;19927;-51
2022/06/23 03:36:16;;;;;;;;;;;;;;;21.32;100.00;97818.44;5133459;28;19931;-48
2022/06/23 03:41:36;;;;;;;;;;;;;;;21.77;100.00;97796.44;5133164;28;19973;-51
2022/06/23 03:44:05;;;;;;;;;;;;;;;22.09;100.00;97798.41;5133382;28;19927;-50
2022/06/23 03:46:34;;;;;;;;;;;;;;;22.44;100.00;97802.66;5133795;28;19927;-51
2022/06/23 03:49:02;;;;;;;;;;;;;;;22.50;100.00;97798.72;5133429;28;20352;-48
2022/06/23 03:51:30;;;;;;;;;;;;;;;22.84;100.00;97798.56;5133531;28;20390;-51
2022/06/23 03:54:00;;;;;;;;;;;;;;;23.20;100.00;97809.38;5133278;28;19927;-48
2022/06/23 03:56:28;;;;;;;;;;;;;;;22.91;100.00;97814.94;5133032;28;19928;-49
2022/06/23 03:58:57;;;;;;;;;;;;;;;23.20;100.00;97820.56;5133433;28;20421;-50
2022/06/23 04:01:26;;;;;;;;;;;;;;;23.36;100.00;97832.47;5133098;28;19931;-50
2022/06/23 04:03:57;;;;;;;;;;;;;;;23.56;100.00;97848.56;5132970;28;20336;-51
2022/06/23 04:06:33;;;;;;;;;;;;;;;23.84;100.00;97871.41;5132859;28;19931;-49
2022/06/23 04:09:07;;;;;;;;;;;;;;;24.20;100.00;97870.16;5132867;28;19933;-51
2022/06/23 04:11:43;;;;;;;;;;;;;;;24.47;100.00;97896.22;5132752;28;19927;-49
2022/06/23 04:14:10;;;;;;;;;;;;;;;24.41;100.00;97905.31;5133037;28;19934;-51
2022/06/23 04:16:37;;;;;;;;;;;;;;;23.62;100.00;97899.78;5132653;28;20412;-49
2022/06/23 04:19:07;;;;;;;;;;;;;;;22.86;100.00;97855.50;5133109;28;19931;-52
2022/06/23 04:21:34;;;;;;;;;;;;;;;22.81;100.00;97833.03;5132819;28;20026;-49
2022/06/23 04:24:02;;;;;;;;;;;;;;;22.30;100.00;97834.88;5133040;28;20195;-48
2022/06/23 04:26:31;;;;;;;;;;;;;;;22.50;100.00;97835.00;5132581;28;19927;-48
2022/06/23 04:28:58;;;;;;;;;;;;;;;21.73;100.00;97824.50;5132630;28;19927;-48
2022/06/23 04:31:26;;;;;;;;;;;;;;;21.36;100.00;97833.03;5132569;28;19954;-51
2022/06/23 04:33:53;;;;;;;;;;;;;;;21.82;100.00;97834.81;5132333;27;19927;-49
2022/06/23 04:36:20;;;;;;;;;;;;;;;22.94;100.00;97830.78;5131818;28;20372;-51
2022/06/23 04:38:49;;;;;;;;;;;;;;;23.83;100.00;97851.06;5132465;28;19934;-51
2022/06/23 04:41:18;;;;;;;;;;;;;;;24.36;100.00;97905.25;5132215;28;19996;-48
2022/06/23 04:43:48;;;;;;;;;;;;;;;25.07;100.00;97953.50;5132161;28;19935;-51
2022/06/23 04:46:16;;;;;;;;;;;;;;;24.82;100.00;97960.59;5132534;28;19945;-49
2022/06/23 04:48:46;;;;;;;;;;;;;;;23.53;100.00;97913.88;5132149;28;19934;-52
2022/06/23 04:51:18;;;;;;;;;;;;;;;22.98;100.00;97887.25;5132354;28;19927;-52
2022/06/23 04:56:41;;;;;;;;;;;;;;;20.88;100.00;97841.16;5131476;28;19927;-54
2022/06/23 04:59:17;;;;;;;;;;;;;;;21.09;100.00;97852.56;5132198;28;19928;-53
2022/06/23 05:01:47;;;;;;;;;;;;;;;20.73;100.00;97879.25;5132015;28;19935;-51
2022/06/23 05:04:17;;;;;;;;;;;;;;;21.06;100.00;97910.00;5132042;28;19927;-52
2022/06/23 05:06:44;;;;;;;;;;;;;;;21.04;100.00;97881.84;5131933;28;19927;-52
2022/06/23 05:09:14;;;;;;;;;;;;;;;21.33;100.00;97911.97;5131566;28;19934;-50
2022/06/23 05:11:43;;;;;;;;;;;;;;;22.85;100.00;97853.94;5131689;28;19938;-50
2022/06/23 05:14:15;;;;;;;;;;;;;;;24.03;100.00;97899.94;5131795;28;20539;-51
2022/06/23 05:16:44;;;;;;;;;;;;;;;24.94;100.00;97920.22;5131664;28;19934;-54
2022/06/23 05:19:11;;;;;;;;;;;;;;;25.47;100.00;97994.75;5131674;28;20291;-55
2022/06/23 05:21:38;;;;;;;;;;;;;;;25.64;100.00;98027.84;5131343;28;19972;-57
2022/06/23 05:24:07;;;;;;;;;;;;;;;26.35;100.00;98095.63;5131500;28;19934;-57
2022/06/23 05:26:38;;;;;;;;;;;;;;;25.21;100.00;98115.34;5131364;28;19934;-58
2022/06/23 05:29:05;;;;;;;;;;;;;;;24.79;100.00;98043.66;5131522;28;19931;-58
2022/06/23 05:31:34;;;;;;;;;;;;;;;24.46;100.00;98009.53;5131596;28;20362;-55
2022/06/23 05:34:05;;;;;;;;;;;;;;;24.79;100.00;97972.78;5131693;28;19934;-52
2022/06/23 05:36:33;;;;;;;;;;;;;;;25.13;100.00;97993.63;5131299;28;20310;-55
2022/06/23 05:39:01;;;;;;;;;;;;;;;26.17;100.00;98038.56;5131434;28;20025;-56
2022/06/23 05:41:31;;;;;;;;;;;;;;;25.87;100.00;98108.22;5131390;28;19927;-55
2022/06/23 05:43:58;;;;;;;;;;;;;;;26.11;100.00;98079.88;5131521;28;19928;-54
2022/06/23 05:46:26;;;;;;;;;;;;;;;26.77;100.00;98097.00;5131283;27;19931;-53
2022/06/23 05:48:55;;;;;;;;;;;;;;;26.77;100.00;98130.75;5131387;28;20017;-55
2022/06/23 05:51:27;;;;;;;;;;;;;;;26.95;100.00;98116.28;5131225;28;20048;-55
2022/06/23 05:53:59;;;;;;;;;;;;;;;27.51;100.00;98099.69;5131233;28;20349;-55
2022/06/23 05:56:29;;;;;;;;;;;;;;;27.11;100.00;98182.34;5131064;28;19934;-54
2022/06/23 05:58:57;;;;;;;;;;;;;;;27.40;100.00;98167.97;5131008;28;19931;-52
2022/06/23 06:01:26;;;;;;;;;;;;;;;27.33;100.00;98136.75;5130815;28;20378;-59
2022/06/23 06:03:54;;;;;;;;;;;;;;;27.91;100.00;98145.69;5130984;28;19927;-59
2022/06/23 06:06:20;;;;;;;;;;;;;;;28.01;100.00;98169.53;5131218;28;19981;-58
2022/06/23 06:11:50;;;;;;;;;;;;;;;28.89;100.00;98163.75;5067682;28;20280;-58
2022/06/23 06:14:17;;;;;;;;;;;;;;;28.94;100.00;98190.41;5067640;28;20003;-55
2022/06/23 06:16:44;;;;;;;;;;;;;;;28.25;100.00;98166.22;5096122;28;19938;-55
2022/06/23 06:19:13;;;;;;;;;;;;;;;28.21;100.00;98173.41;5130817;28;19934;-57
2022/06/23 06:21:38;;;;;;;;;;;;;;;28.25;100.00;98176.75;5130525;28;19927;-60
2022/06/23 06:24:10;;;;;;;;;;;;;;;28.20;100.00;98183.91;5130601;28;19933;-55
2022/06/23 06:26:40;;;;;;;;;;;;;;;28.53;100.00;98185.28;5130688;28;19928;-57
2022/06/23 06:29:11;;;;;;;;;;;;;;;28.67;100.00;98225.78;5130803;28;19928;-54
2022/06/23 06:31:39;;;;;;;;;;;;;;;29.09;100.00;98190.94;5130741;28;19928;-55
2022/06/23 06:34:10;;;;;;;;;;;;;;;29.11;100.00;98222.22;5130883;28;19927;-54
2022/06/23 06:36:39;;;;;;;;;;;;;;;29.59;100.00;98257.03;5130442;28;19927;-57
2022/06/23 06:39:09;;;;;;;;;;;;;;;29.70;100.00;98269.09;5130807;28;19927;-60
2022/06/23 06:41:35;;;;;;;;;;;;;;;29.05;100.00;98264.53;5130243;28;19927;-61
2022/06/23 06:44:01;;;;;;;;;;;;;;;29.86;100.00;98269.56;5130504;28;19928;-60
2022/06/23 06:46:27;;;;;;;;;;;;;;;29.94;100.00;98279.03;5130685;28;19927;-56
2022/06/23 06:48:53;;;;;;;;;;;;;;;30.11;100.00;98299.53;5130612;28;20656;-53
2022/06/23 06:51:21;;;;;;;;;;;;;;;29.88;100.00;98273.41;5130499;28;19977;-57
2022/06/23 06:53:48;;;;;;;;;;;;;;;29.95;100.00;98267.19;5130544;28;20022;-56
2022/06/23 06:56:18;;;;;;;;;;;;;;;30.16;100.00;98293.09;5130695;28;19927;-60
2022/06/23 06:58:45;;;;;;;;;;;;;;;29.78;100.00;98304.00;5132123;27;19932;-57
2022/06/23 07:01:14;;;;;;;;;;;;;;;30.06;100.00;98274.88;5133392;28;19934;-60
2022/06/23 07:03:43;;;;;;;;;;;;;;;29.88;100.00;98327.06;5133642;28;19934;-60
2022/06/23 07:06:13;;;;;;;;;;;;;;;30.32;100.00;98322.59;5134060;28;19928;-62
2022/06/23 07:08:41;;;;;;;;;;;;;;;30.12;100.00;98354.75;5133639;28;19927;-62
2022/06/23 07:11:12;;;;;;;;;;;;;;;29.50;100.00;98334.31;5133749;28;19931;-64
2022/06/23 07:13:41;;;;;;;;;;;;;;;29.10;100.00;98319.44;5133613;28;19933;-56
2022/06/23 07:16:12;;;;;;;;;;;;;;;29.77;100.00;98386.44;5133643;28;19927;-57
2022/06/23 07:18:42;;;;;;;;;;;;;;;29.48;100.00;98348.94;5133682;28;19927;-59
2022/06/23 07:21:11;;;;;;;;;;;;;;;30.05;100.00;98348.88;5133372;28;19927;-58
2022/06/23 07:23:40;;;;;;;;;;;;;;;29.50;100.00;98346.38;5133416;28;19981;-61
2022/06/23 07:26:14;;;;;;;;;;;;;;;29.76;100.00;98340.47;5133348;28;19927;-55
2022/06/23 07:28:43;;;;;;;;;;;;;;;30.24;100.00;98338.56;5133211;28;19934;-59
2022/06/23 07:31:12;;;;;;;;;;;;;;;30.07;100.00;98386.63;5133247;28;20064;-58
2022/06/23 07:33:41;;;;;;;;;;;;;;;30.16;100.00;98388.44;5133309;28;19927;-57
2022/06/23 07:36:11;;;;;;;;;;;;;;;30.27;100.00;98373.50;5133278;28;19938;-59
2022/06/23 07:38:40;;;;;;;;;;;;;;;30.70;100.00;98368.19;5133101;28;19927;-59
2022/06/23 07:41:09;;;;;;;;;;;;;;;30.78;100.00;98422.94;5133243;28;19927;-59
2022/06/23 07:43:38;;;;;;;;;;;;;;;30.83;100.00;98399.53;5133206;28;19928;-60
2022/06/23 07:46:05;;;;;;;;;;;;;;;29.01;100.00;98388.16;5133277;28;19927;-59
2022/06/23 07:48:33;;;;;;;;;;;;;;;30.28;100.00;98394.84;5132991;28;19962;-58
2022/06/23 07:50:59;;;;;;;;;;;;;;;30.80;100.00;98457.16;5133007;28;19927;-60
2022/06/23 07:53:27;;;;;;;;;;;;;;;30.90;100.00;98441.41;5132739;28;20420;-60
2022/06/23 07:55:53;;;;;;;;;;;;;;;31.54;100.00;98449.03;5132871;28;19931;-58
2022/06/23 07:58:21;;;;;;;;;;;;;;;30.64;100.00;98441.75;5132910;28;19976;-58
2022/06/23 08:00:49;;;;;;;;;;;;;;;30.67;100.00;98439.94;5132811;28;20459;-59
2022/06/23 08:03:18;;;;;;;;;;;;;;;30.65;100.00;98462.31;5132779;28;19934;-59
2022/06/23 08:05:46;;;;;;;;;;;;;;;30.94;100.00;98464.53;5132886;28;19927;-58
2022/06/23 08:08:16;;;;;;;;;;;;;;;30.66;100.00;98438.41;5132758;28;19927;-59
2022/06/23 08:10:42;;;;;;;;;;;;;;;30.50;100.00;98473.94;5131208;27;19927;-57
2022/06/23 08:13:11;;;;;;;;;;;;;;;30.94;100.00;98453.22;5132515;28;19989;-57
2022/06/23 08:18:29;;;;;;;;;;;;;;;31.25;100.00;98456.91;5132330;28;20388;-61
2022/06/23 08:20:58;;;;;;;;;;;;;;;30.75;100.00;98488.25;5132406;28;19927;-59
2022/06/23 08:23:25;;;;;;;;;;;;;;;30.48;100.00;98493.47;5132813;28;20390;-57
2022/06/23 08:25:52;;;;;;;;;;;;;;;30.41;100.00;98491.19;5132417;28;19927;-55
2022/06/23 08:28:20;;;;;;;;;;;;;;;28.98;100.00;98487.16;5132530;28;19928;-53
2022/06/23 08:30:48;;;;;;;;;;;;;;;28.68;100.00;98470.59;5131789;28;20322;-55
2022/06/23 08:33:14;;;;;;;;;;;;;;;29.77;100.00;98482.50;5132009;28;19931;-56
2022/06/23 08:35:42;;;;;;;;;;;;;;;28.62;100.00;98461.34;5132376;28;19981;-55
2022/06/23 08:38:09;;;;;;;;;;;;;;;27.57;100.00;98443.94;5131981;28;19928;-51
2022/06/23 08:40:47;;;;;;;;;;;;;;;26.93;100.00;98374.78;5132121;28;19950;-50
2022/06/23 08:43:17;;;;;;;;;;;;;;;27.16;100.00;98327.97;5131937;28;19935;-53
2022/06/23 08:45:45;;;;;;;;;;;;;;;27.26;100.00;98363.09;5131998;28;19988;-55
2022/06/23 08:48:15;;;;;;;;;;;;;;;27.84;100.00;98377.13;5132199;28;19935;-55
2022/06/23 08:50:44;;;;;;;;;;;;;;;27.21;100.00;98344.09;5132292;28;20810;-54
2022/06/23 08:53:14;;;;;;;;;;;;;;;26.45;100.00;98272.00;5131818;28;19927;-53
2022/06/23 08:55:42;;;;;;;;;;;;;;;26.54;100.00;98242.22;5131720;28;19927;-55
2022/06/23 08:58:14;;;;;;;;;;;;;;;25.73;100.00;98252.25;5132213;28;19928;-54
2022/06/23 09:00:47;;;;;;;;;;;;;;;25.29;100.00;98220.25;5131746;28;20310;-52
2022/06/23 09:03:17;;;;;;;;;;;;;;;25.56;100.00;98221.16;5131860;28;19931;-52
2022/06/23 09:05:47;;;;;;;;;;;;;;;25.75;100.00;98236.44;5131571;28;19988;-58
2022/06/23 09:08:17;;;;;;;;;;;;;;;26.71;100.00;98243.16;5131650;28;19938;-56
2022/06/23 09:10:48;;;;;;;;;;;;;;;27.72;100.00;98341.66;5131523;28;19931;-53
2022/06/23 09:13:23;;;;;;;;;;;;;;;26.96;100.00;98345.66;5131817;28;19927;-55
2022/06/23 09:15:59;;;;;;;;;;;;;;;25.99;100.00;98291.63;5131681;28;19933;-55
2022/06/23 09:18:44;;;;;;;;;;;;;;;26.15;100.00;98284.69;5131499;28;19960;-56
2022/06/23 09:21:26;;;;;;;;;;;;;;;25.51;100.00;98249.88;5131002;27;19972;-56
2022/06/23 09:24:13;;;;;;;;;;;;;;;24.92;100.00;98250.75;5131278;28;19927;-51
2022/06/23 09:26:41;;;;;;;;;;;;;;;24.53;100.00;98185.66;5122885;28;19927;-56
2022/06/23 09:29:11;;;;;;;;;;;;;;;24.18;100.00;98150.63;5131502;28;19931;-53
2022/06/23 09:31:44;;;;;;;;;;;;;;;24.00;100.00;98094.06;5131261;28;19927;-55
2022/06/23 09:34:13;;;;;;;;;;;;;;;24.01;100.00;98129.19;5131366;28;19927;-55
2022/06/23 09:36:51;;;;;;;;;;;;;;;23.94;100.00;98153.50;5131172;28;19935;-54
2022/06/23 09:39:30;;;;;;;;;;;;;;;23.95;100.00;98151.47;5131318;28;19934;-49
2022/06/23 09:42:09;;;;;;;;;;;;;;;25.29;100.00;98216.66;5131184;28;19949;-51
2022/06/23 09:44:50;;;;;;;;;;;;;;;26.26;100.00;98333.38;5131578;28;19927;-56
2022/06/23 09:47:34;;;;;;;;;;;;;;;26.40;100.00;98317.69;5130891;28;19935;-53
2022/06/23 09:50:13;;;;;;;;;;;;;;;26.32;100.00;98329.84;5130474;28;19972;-54
2022/06/23 09:52:49;;;;;;;;;;;;;;;26.55;100.00;98325.28;5131583;28;19931;-57
2022/06/23 09:55:36;;;;;;;;;;;;;;;26.47;100.00;98331.34;5131100;28;19928;-56
2022/06/23 09:58:20;;;;;;;;;;;;;;;27.25;100.00;98391.72;5088009;28;19927;-55
2022/06/23 10:00:53;;;;;;;;;;;;;;;27.96;100.00;98401.28;5131238;28;19934;-54
2022/06/23 10:03:29;;;;;;;;;;;;;;;28.31;100.00;98488.31;5130905;28;20023;-53
2022/06/23 10:06:07;;;;;;;;;;;;;;;27.74;100.00;98491.97;5131012;28;20277;-58
2022/06/23 10:08:41;;;;;;;;;;;;;;;26.94;100.00;98387.56;5130466;28;19928;-56
2022/06/23 10:11:15;;;;;;;;;;;;;;;25.71;100.00;98373.41;5130767;28;20416;-56
2022/06/23 10:13:49;;;;;;;;;;;;;;;25.16;100.00;98315.16;5130672;28;19928;-53
2022/06/23 10:16:25;;;;;;;;;;;;;;;24.75;100.00;98291.72;5130670;28;19927;-53
2022/06/23 10:19:04;;;;;;;;;;;;;;;25.21;100.00;98341.75;5130771;28;19927;-55
2022/06/23 10:21:36;;;;;;;;;;;;;;;25.04;100.00;98349.84;5130369;28;19934;-52
2022/06/23 10:24:20;;;;;;;;;;;;;;;25.23;100.00;98387.69;5130797;28;19928;-56
2022/06/23 10:26:54;;;;;;;;;;;;;;;25.78;100.00;98380.66;5130524;28;19931;-55
2022/06/23 10:29:35;;;;;;;;;;;;;;;26.35;100.00;98402.69;5130534;28;19979;-56
2022/06/23 10:32:22;;;;;;;;;;;;;;;27.04;100.00;98399.41;5130482;27;20319;-51
2022/06/23 10:34:55;;;;;;;;;;;;;;;26.99;100.00;98378.38;5125271;28;19927;-56
2022/06/23 10:37:25;;;;;;;;;;;;;;;26.57;100.00;98382.56;5134337;28;19934;-55
2022/06/23 10:39:58;;;;;;;;;;;;;;;25.54;100.00;98307.84;5134082;28;19976;-56
2022/06/23 10:42:35;;;;;;;;;;;;;;;25.05;100.00;98314.94;5133771;28;19931;-55
2022/06/23 10:45:14;;;;;;;;;;;;;;;24.86;100.00;98263.91;5133823;28;20072;-56
2022/06/23 10:47:48;;;;;;;;;;;;;;;25.44;100.00;98317.63;5133837;28;19976;-56
2022/06/23 10:50:25;;;;;;;;;;;;;;;26.01;100.00;98356.50;5134213;28;19977;-56
2022/06/23 10:53:05;;;;;;;;;;;;;;;26.50;100.00;98349.25;5134027;28;19977;-53
2022/06/23 10:55:35;;;;;;;;;;;;;;;26.37;100.00;98428.25;5134124;28;19934;-57
2022/06/23 10:58:19;;;;;;;;;;;;;;;26.40;100.00;98488.34;5133699;28;19969;-56
2022/06/23 11:00:50;;;;;;;;;;;;;;;26.34;100.00;98431.28;5133881;28;19927;-55
2022/06/23 11:03:28;;;;;;;;;;;;;;;25.75;100.00;98406.91;5133649;28;19927;-53
2022/06/23 11:06:02;;;;;;;;;;;;;;;25.73;100.00;98412.25;5133694;28;19931;-54
2022/06/23 11:08:43;;;;;;;;;;;;;;;25.24;100.00;98453.75;5133696;28;19928;-54
2022/06/23 11:11:25;;;;;;;;;;;;;;;25.05;100.00;98366.19;5129382;28;19996;-51
2022/06/23 11:13:57;;;;;;;;;;;;;;;24.79;100.00;98368.78;5133588;28;19927;-56
2022/06/23 11:16:29;;;;;;;;;;;;;;;25.16;100.00;98326.38;5133795;28;19927;-56
2022/06/23 11:19:01;;;;;;;;;;;;;;;25.48;100.00;98318.22;5133488;28;20390;-56
2022/06/23 11:21:34;;;;;;;;;;;;;;;25.03;100.00;98276.19;5133842;28;20365;-57
2022/06/23 11:24:02;;;;;;;;;;;;;;;25.38;100.00;98297.13;5133612;28;19927;-52
2022/06/23 11:26:39;;;;;;;;;;;;;;;25.36;100.00;98373.38;5133553;28;19937;-51
2022/06/23 11:29:20;;;;;;;;;;;;;;;25.50;100.00;98394.28;5133169;28;20031;-54
2022/06/23 11:31:49;;;;;;;;;;;;;;;25.69;100.00;98420.06;5133304;28;19934;-53
2022/06/23 11:34:26;;;;;;;;;;;;;;;26.01;100.00;98404.25;5133337;28;20022;-52
2022/06/23 11:37:11;;;;;;;;;;;;;;;25.90;100.00;98347.94;5133271;28;19934;-52
2022/06/23 11:39:49;;;;;;;;;;;;;;;25.91;100.00;98388.78;5133200;28;19973;-54
2022/06/23 11:42:26;;;;;;;;;;;;;;;25.93;100.00;98383.47;5132942;28;19935;-54
2022/06/23 11:44:58;;;;;;;;;;;;;;;25.26;100.00;98350.28;5133353;27;19927;-57
2022/06/23 11:47:29;;;;;;;;;;;;;;;24.88;100.00;98298.59;5133001;28;20113;-59
2022/06/23 11:50:01;;;;;;;;;;;;;;;24.54;100.00;98249.59;5133038;28;19927;-54
2022/06/23 11:52:42;;;;;;;;;;;;;;;24.54;100.00;98263.59;5133218;28;19950;-56
2022/06/23 11:55:23;;;;;;;;;;;;;;;23.95;100.00;98193.47;5133373;28;19931;-55
2022/06/23 11:58:13;;;;;;;;;;;;;;;23.84;100.00;98184.84;5133302;28;19934;-55
2022/06/23 12:00:44;;;;;;;;;;;;;;;24.29;100.00;98192.09;5132871;28;19927;-53
2022/06/23 12:03:29;;;;;;;;;;;;;;;24.41;100.00;98227.47;5133076;28;20316;-52
2022/06/23 12:06:03;;;;;;;;;;;;;;;24.49;100.00;98238.28;5132679;28;19928;-53
2022/06/23 12:08:36;;;;;;;;;;;;;;;24.74;100.00;98310.59;5132793;28;19971;-54
2022/06/23 12:11:03;;;;;;;;;;;;;;;25.15;100.00;98329.66;5132955;28;20422;-55
2022/06/23 12:13:32;;;;;;;;;;;;;;;24.79;100.00;98380.00;5132724;28;19997;-50
2022/06/23 12:15:59;;;;;;;;;;;;;;;25.01;100.00;98339.59;5133064;28;19934;-54
2022/06/23 12:18:27;;;;;;;;;;;;;;;25.05;100.00;98340.19;5132543;28;19927;-53
2022/06/23 12:20:56;;;;;;;;;;;;;;;25.13;100.00;98361.00;5132785;28;19927;-55
2022/06/23 12:23:25;;;;;;;;;;;;;;;25.12;100.00;98359.44;5132406;28;20014;-52
2022/06/23 12:25:57;;;;;;;;;;;;;;;24.98;100.00;98433.09;5132735;28;19928;-51
2022/06/23 12:28:27;;;;;;;;;;;;;;;24.89;100.00;98447.94;5132613;28;19928;-53
2022/06/23 12:30:56;;;;;;;;;;;;;;;24.92;100.00;98446.22;5132454;28;19928;-53
2022/06/23 12:33:27;;;;;;;;;;;;;;;24.77;100.00;98429.38;5132331;28;19934;-55
2022/06/23 12:35:58;;;;;;;;;;;;;;;24.97;100.00;98431.56;5132297;28;20354;-54
2022/06/23 12:38:28;;;;;;;;;;;;;;;25.00;100.00;98411.72;5132514;28;19975;-54
2022/06/23 12:40:56;;;;;;;;;;;;;;;24.76;100.00;98405.38;5132365;28;19931;-55
2022/06/23 12:43:25;;;;;;;;;;;;;;;24.71;100.00;98378.03;5132608;28;19927;-53
2022/06/23 12:46:03;;;;;;;;;;;;;;;24.87;100.00;98414.81;5132076;28;19933;-51
2022/06/23 12:48:40;;;;;;;;;;;;;;;24.81;100.00;98391.50;5132141;28;20318;-51
2022/06/23 12:51:10;;;;;;;;;;;;;;;24.76;100.00;98375.34;5132124;28;19927;-50
2022/06/23 12:53:49;;;;;;;;;;;;;;;24.55;100.00;98287.56;5132300;28;20424;-55
2022/06/23 12:56:22;;;;;;;;;;;;;;;24.21;100.00;98297.31;5131372;27;19934;-55
2022/06/23 12:58:50;;;;;;;;;;;;;;;24.24;100.00;98293.56;5131857;28;19927;-55
2022/06/23 13:01:18;;;;;;;;;;;;;;;24.39;100.00;98273.97;5132034;28;20403;-56
2022/06/23 13:03:50;;;;;;;;;;;;;;;24.28;100.00;98277.34;5131991;28;19932;-55
2022/06/23 13:06:27;;;;;;;;;;;;;;;24.19;100.00;98267.00;5132249;28;19934;-54
2022/06/23 13:09:05;;;;;;;;;;;;;;;24.35;100.00;98284.59;5132009;28;19934;-52